createdAt,value
2023-02-06T00:01:18.105Z,87.22
2023-02-06T00:03:45.001Z,87.12
2023-02-06T00:06:11.996Z,87.11
2023-02-06T00:08:38.912Z,87.00
2023-02-06T00:11:07.752Z,86.94
2023-02-06T00:13:35.622Z,86.30
2023-02-06T00:16:02.749Z,86.01
2023-02-06T00:18:29.697Z,85.64
2023-02-06T00:20:56.575Z,84.88
2023-02-06T00:23:23.470Z,84.97
2023-02-06T00:25:50.374Z,84.40
2023-02-06T00:28:17.433Z,84.30
2023-02-06T00:30:47.231Z,83.96
2023-02-06T00:33:14.440Z,83.41
2023-02-06T00:35:41.544Z,83.34
2023-02-06T00:38:10.607Z,83.56
2023-02-06T00:40:38.028Z,83.78
2023-02-06T00:43:05.150Z,83.72
2023-02-06T00:45:32.122Z,83.86
2023-02-06T00:47:59.117Z,83.60
2023-02-06T00:50:26.813Z,83.43
2023-02-06T00:52:53.634Z,83.75
2023-02-06T00:55:20.556Z,84.07
2023-02-06T00:57:47.412Z,84.15
2023-02-06T01:00:15.501Z,84.35
2023-02-06T01:02:42.747Z,84.58
2023-02-06T01:05:10.072Z,84.46
2023-02-06T01:07:39.456Z,84.52
2023-02-06T01:10:09.718Z,84.36
2023-02-06T01:12:39.622Z,84.58
2023-02-06T01:15:07.601Z,84.25
2023-02-06T01:17:34.674Z,84.05
2023-02-06T01:20:01.796Z,83.95
2023-02-06T01:22:28.766Z,83.90
2023-02-06T01:24:55.601Z,83.26
2023-02-06T01:27:22.501Z,83.04
2023-02-06T01:29:49.349Z,82.86
2023-02-06T01:32:16.314Z,82.82
2023-02-06T01:34:43.250Z,82.57
2023-02-06T01:37:10.257Z,82.17
2023-02-06T01:39:37.159Z,81.55
2023-02-06T01:42:04.829Z,80.75
2023-02-06T01:44:32.605Z,79.62
2023-02-06T01:46:59.538Z,79.79
2023-02-06T01:49:36.715Z,80.01
2023-02-06T01:52:24.733Z,80.38
2023-02-06T01:54:55.158Z,81.05
2023-02-06T01:57:22.486Z,81.01
2023-02-06T01:59:54.974Z,80.71
2023-02-06T02:02:23.060Z,81.10
2023-02-06T02:04:50.050Z,80.83
2023-02-06T02:07:30.058Z,80.84
2023-02-06T02:09:56.991Z,80.81
2023-02-06T02:12:24.218Z,81.37
2023-02-06T02:14:52.485Z,81.12
2023-02-06T02:17:36.049Z,80.83
2023-02-06T02:20:14.826Z,81.30
2023-02-06T02:23:00.535Z,81.51
2023-02-06T02:25:59.490Z,81.23
2023-02-06T02:28:29.131Z,81.45
2023-02-06T02:30:56.316Z,81.33
2023-02-06T02:33:43.268Z,81.73
2023-02-06T02:36:20.613Z,82.47
2023-02-06T02:39:08.771Z,83.09
2023-02-06T02:42:01.714Z,83.17
2023-02-06T02:44:55.541Z,83.06
2023-02-06T02:47:27.269Z,83.59
2023-02-06T02:49:54.913Z,83.97
2023-02-06T02:52:21.799Z,84.07
2023-02-06T02:54:48.797Z,83.49
2023-02-06T02:57:22.707Z,83.15
2023-02-06T02:59:50.697Z,83.31
2023-02-06T03:02:33.877Z,83.45
2023-02-06T03:05:06.931Z,83.55
2023-02-06T03:07:51.092Z,84.60
2023-02-06T03:10:31.313Z,85.01
2023-02-06T03:13:41.775Z,85.47
2023-02-06T03:16:33.607Z,86.56
2023-02-06T03:19:40.328Z,86.66
2023-02-06T03:22:07.268Z,86.93
2023-02-06T03:24:37.858Z,86.84
2023-02-06T03:27:08.799Z,86.54
2023-02-06T03:29:38.421Z,86.15
2023-02-06T03:32:11.258Z,86.63
2023-02-06T03:35:02.853Z,86.77
2023-02-06T03:37:30.159Z,86.79
2023-02-06T03:39:59.581Z,86.39
2023-02-06T03:42:28.850Z,86.29
2023-02-06T03:45:20.706Z,85.95
2023-02-06T03:47:48.808Z,85.72
2023-02-06T03:50:16.404Z,85.49
2023-02-06T03:52:47.623Z,85.72
2023-02-06T03:55:19.185Z,85.83
2023-02-06T03:57:49.200Z,86.08
2023-02-06T04:00:16.654Z,86.14
2023-02-06T04:02:46.358Z,86.24
2023-02-06T04:05:15.072Z,86.72
2023-02-06T04:07:41.967Z,86.94
2023-02-06T04:10:09.281Z,87.00
2023-02-06T04:12:37.034Z,87.17
2023-02-06T04:15:04.565Z,87.41
2023-02-06T04:17:46.225Z,87.93
2023-02-06T04:20:16.963Z,88.49
2023-02-06T04:22:43.920Z,89.13
2023-02-06T04:25:10.970Z,89.22
2023-02-06T04:27:38.243Z,89.70
2023-02-06T04:30:06.301Z,89.66
2023-02-06T04:32:33.621Z,89.91
2023-02-06T04:35:00.499Z,90.03
2023-02-06T04:37:27.473Z,89.59
2023-02-06T04:39:55.499Z,89.29
2023-02-06T04:42:22.579Z,89.49
2023-02-06T04:44:49.466Z,89.37
2023-02-06T04:47:16.434Z,88.91
2023-02-06T04:49:43.470Z,89.17
2023-02-06T04:52:10.478Z,89.79
2023-02-06T04:54:37.375Z,89.86
2023-02-06T04:57:04.226Z,89.78
2023-02-06T04:59:31.339Z,89.74
2023-02-06T05:01:58.285Z,89.29
2023-02-06T05:04:25.367Z,89.16
2023-02-06T05:06:52.252Z,89.04
2023-02-06T05:09:19.341Z,88.72
2023-02-06T05:11:46.294Z,88.03
2023-02-06T05:14:13.211Z,87.88
2023-02-06T05:16:40.281Z,87.66
2023-02-06T05:19:07.427Z,87.24
2023-02-06T05:21:34.464Z,87.16
2023-02-06T05:24:01.353Z,86.98
2023-02-06T05:26:28.353Z,86.97
2023-02-06T05:28:55.228Z,86.93
2023-02-06T05:31:22.582Z,87.15
2023-02-06T05:33:53.730Z,87.42
2023-02-06T05:36:21.888Z,87.66
2023-02-06T05:38:49.119Z,87.81
2023-02-06T05:41:16.734Z,87.66
2023-02-06T05:43:43.709Z,87.80
2023-02-06T05:46:12.915Z,87.81
2023-02-06T05:48:40.227Z,87.83
2023-02-06T05:51:07.116Z,87.67
2023-02-06T05:53:33.943Z,87.38
2023-02-06T05:56:00.728Z,87.16
2023-02-06T05:58:27.908Z,86.58
2023-02-06T06:00:54.829Z,86.55
2023-02-06T06:03:21.862Z,86.50
2023-02-06T06:05:49.127Z,86.32
2023-02-06T06:08:16.094Z,86.37
2023-02-06T06:10:43.067Z,86.51
2023-02-06T06:13:10.160Z,86.65
2023-02-06T06:15:37.390Z,86.86
2023-02-06T06:18:04.583Z,86.95
2023-02-06T06:20:31.488Z,86.81
2023-02-06T06:23:05.752Z,87.10
2023-02-06T06:25:32.634Z,87.09
2023-02-06T06:27:59.476Z,86.94
2023-02-06T06:30:26.417Z,86.94
2023-02-06T06:32:53.656Z,86.64
2023-02-06T06:35:20.640Z,84.80
2023-02-06T06:37:47.694Z,82.92
2023-02-06T06:40:14.541Z,83.06
2023-02-06T06:42:41.370Z,82.53
2023-02-06T06:45:08.415Z,80.69
2023-02-06T06:47:35.295Z,77.50
2023-02-06T06:50:02.202Z,75.93
2023-02-06T06:52:29.579Z,74.62
2023-02-06T06:54:56.526Z,73.64
2023-02-06T06:57:23.854Z,74.15
2023-02-06T06:59:52.803Z,75.43
2023-02-06T07:02:19.773Z,76.92
2023-02-06T07:04:46.893Z,78.67
2023-02-06T07:07:13.833Z,78.45
2023-02-06T07:09:42.212Z,77.73
2023-02-06T07:12:09.106Z,77.10
2023-02-06T07:14:35.972Z,77.29
2023-02-06T07:17:03.055Z,76.08
2023-02-06T07:19:30.023Z,74.52
2023-02-06T07:21:56.941Z,74.26
2023-02-06T07:24:23.843Z,74.88
2023-02-06T07:26:50.787Z,76.04
2023-02-06T07:29:17.675Z,75.94
2023-02-06T07:31:44.610Z,76.65
2023-02-06T07:34:12.585Z,76.92
2023-02-06T07:36:39.524Z,77.99
2023-02-06T07:39:06.388Z,78.99
2023-02-06T07:41:33.479Z,80.04
2023-02-06T07:44:00.373Z,80.36
2023-02-06T07:46:27.322Z,80.13
2023-02-06T07:48:54.314Z,78.52
2023-02-06T07:51:21.414Z,78.44
2023-02-06T07:53:48.476Z,77.38
2023-02-06T07:56:17.537Z,75.45
2023-02-06T07:58:44.892Z,74.81
2023-02-06T08:01:11.827Z,74.36
2023-02-06T08:03:38.880Z,73.39
2023-02-06T08:06:14.669Z,70.73
2023-02-06T08:08:42.304Z,69.25
2023-02-06T08:11:11.745Z,70.28
2023-02-06T08:13:38.736Z,67.55
2023-02-06T08:16:07.651Z,67.02
2023-02-06T08:18:35.039Z,65.90
2023-02-06T08:21:03.663Z,66.00
2023-02-06T08:23:30.778Z,65.50
2023-02-06T08:26:11.250Z,65.66
2023-02-06T08:28:38.260Z,66.74
2023-02-06T08:31:19.888Z,64.43
2023-02-06T08:33:47.341Z,65.42
2023-02-06T08:36:14.966Z,65.66
2023-02-06T08:38:42.331Z,65.94
2023-02-06T08:41:24.618Z,66.48
2023-02-06T08:43:53.355Z,65.56
2023-02-06T08:46:20.711Z,63.88
2023-02-06T08:48:47.713Z,62.86
2023-02-06T08:51:15.409Z,61.37
2023-02-06T08:53:43.020Z,62.28
2023-02-06T08:56:11.235Z,62.16
2023-02-06T08:58:38.718Z,61.04
2023-02-06T09:01:11.314Z,61.12
2023-02-06T09:03:38.269Z,60.64
2023-02-06T09:06:10.226Z,61.68
2023-02-06T09:08:38.477Z,60.33
2023-02-06T09:11:11.290Z,61.35
2023-02-06T09:13:38.604Z,61.37
2023-02-06T09:16:06.193Z,61.34
2023-02-06T09:18:33.234Z,60.57
2023-02-06T09:21:16.455Z,58.70
2023-02-06T09:23:45.852Z,59.20
2023-02-06T09:26:15.293Z,59.04
2023-02-06T09:28:42.409Z,60.31
2023-02-06T09:31:09.854Z,59.06
2023-02-06T09:33:38.530Z,58.36
2023-02-06T09:36:11.409Z,58.36
2023-02-06T09:38:43.700Z,57.40
2023-02-06T09:41:39.338Z,55.87
2023-02-06T09:44:38.208Z,56.54
2023-02-06T09:47:22.701Z,57.00
2023-02-06T09:49:53.472Z,57.18
2023-02-06T09:52:51.612Z,56.54
2023-02-06T09:55:39.372Z,55.81
2023-02-06T09:58:43.130Z,55.36
2023-02-06T10:01:15.593Z,56.29
2023-02-06T10:04:13.106Z,56.17
2023-02-06T10:06:40.055Z,55.37
2023-02-06T10:09:11.735Z,54.64
2023-02-06T10:11:40.555Z,55.04
2023-02-06T10:14:39.889Z,55.51
2023-02-06T10:17:16.517Z,54.83
2023-02-06T10:19:49.819Z,55.13
2023-02-06T10:22:38.056Z,55.20
2023-02-06T10:25:33.560Z,54.58
2023-02-06T10:28:30.860Z,55.17
2023-02-06T10:31:09.685Z,54.77
2023-02-06T10:33:39.496Z,53.16
2023-02-06T10:36:09.119Z,53.69
2023-02-06T10:38:58.263Z,52.79
2023-02-06T10:42:03.984Z,52.86
2023-02-06T10:45:18.555Z,53.49
2023-02-06T10:47:56.225Z,53.86
2023-02-06T10:50:28.070Z,54.01
2023-02-06T10:52:57.801Z,53.66
2023-02-06T10:55:49.526Z,54.37
2023-02-06T10:58:20.910Z,54.23
2023-02-06T11:00:49.437Z,53.63
2023-02-06T11:03:20.231Z,54.31
2023-02-06T11:05:47.977Z,53.69
2023-02-06T11:08:22.206Z,53.08
2023-02-06T11:10:50.278Z,53.10
2023-02-06T11:13:37.198Z,52.63
2023-02-06T11:16:13.643Z,52.38
2023-02-06T11:18:44.442Z,53.00
2023-02-06T11:21:13.801Z,52.45
2023-02-06T11:23:42.147Z,50.75
2023-02-06T11:26:15.105Z,51.69
2023-02-06T11:28:56.744Z,50.27
2023-02-06T11:31:39.264Z,51.32
2023-02-06T11:34:06.468Z,50.90
2023-02-06T11:36:35.478Z,51.54
2023-02-06T11:39:15.957Z,51.52
2023-02-06T11:42:00.366Z,51.43
2023-02-06T11:44:30.164Z,50.93
2023-02-06T11:46:57.151Z,50.34
2023-02-06T11:49:27.132Z,51.74
2023-02-06T11:51:56.417Z,51.45
2023-02-06T11:54:28.411Z,50.87
2023-02-06T11:57:07.817Z,51.73
2023-02-06T11:59:36.540Z,51.69
2023-02-06T12:02:24.557Z,51.55
2023-02-06T12:04:57.059Z,51.65
2023-02-06T12:07:34.128Z,51.34
2023-02-06T12:10:13.349Z,53.00
2023-02-06T12:12:42.652Z,52.21
2023-02-06T12:15:39.775Z,52.84
2023-02-06T12:18:10.245Z,52.80
2023-02-06T12:21:05.020Z,53.00
2023-02-06T12:23:38.369Z,53.14
2023-02-06T12:26:12.232Z,52.16
2023-02-06T12:29:03.532Z,52.79
2023-02-06T12:31:41.573Z,52.52
2023-02-06T12:34:15.273Z,52.90
2023-02-06T12:37:13.991Z,52.78
2023-02-06T12:39:43.272Z,52.57
2023-02-06T12:42:46.863Z,53.09
2023-02-06T12:45:38.383Z,51.73
2023-02-06T12:48:28.790Z,52.16
2023-02-06T12:51:18.815Z,51.86
2023-02-06T12:54:05.070Z,52.65
2023-02-06T12:56:40.657Z,52.19
2023-02-06T12:59:07.451Z,52.41
2023-02-06T13:01:52.658Z,53.09
2023-02-06T13:04:23.861Z,53.01
2023-02-06T13:06:59.904Z,53.45
2023-02-06T13:09:32.460Z,53.17
2023-02-06T13:12:23.326Z,52.56
2023-02-06T13:14:55.788Z,52.74
2023-02-06T13:17:28.027Z,52.59
2023-02-06T13:20:07.154Z,52.41
2023-02-06T13:22:34.622Z,52.80
2023-02-06T13:25:02.001Z,52.65
2023-02-06T13:27:39.376Z,52.65
2023-02-06T13:30:45.727Z,52.19
2023-02-06T13:33:23.181Z,51.94
2023-02-06T13:36:02.249Z,52.30
2023-02-06T13:38:42.352Z,53.22
2023-02-06T13:41:15.346Z,52.62
2023-02-06T13:44:01.256Z,52.57
2023-02-06T13:47:08.609Z,52.04
2023-02-06T13:50:12.766Z,52.14
2023-02-06T13:53:11.845Z,52.66
2023-02-06T13:55:50.895Z,52.58
2023-02-06T13:58:36.246Z,53.06
2023-02-06T14:01:05.368Z,53.44
2023-02-06T14:03:34.671Z,53.33
2023-02-06T14:06:11.498Z,52.81
2023-02-06T14:09:12.605Z,53.37
2023-02-06T14:12:17.572Z,53.82
2023-02-06T14:14:58.568Z,53.46
2023-02-06T14:17:49.211Z,52.98
2023-02-06T14:20:31.009Z,53.03
2023-02-06T14:23:07.449Z,53.16
2023-02-06T14:25:44.398Z,53.48
2023-02-06T14:28:42.394Z,53.53
2023-02-06T14:31:21.722Z,52.88
2023-02-06T14:34:06.907Z,53.70
2023-02-06T14:36:39.874Z,53.53
2023-02-06T14:39:44.600Z,53.17
2023-02-06T14:42:37.062Z,53.31
2023-02-06T14:45:20.693Z,53.07
2023-02-06T14:47:48.001Z,53.87
2023-02-06T14:50:40.484Z,54.65
2023-02-06T14:53:10.663Z,53.64
2023-02-06T14:55:42.140Z,53.06
2023-02-06T14:58:27.310Z,53.23
2023-02-06T15:00:55.718Z,53.32
2023-02-06T15:03:25.655Z,54.02
2023-02-06T15:06:07.373Z,53.92
2023-02-06T15:08:34.733Z,53.90
2023-02-06T15:11:06.633Z,54.96
2023-02-06T15:13:37.352Z,55.97
2023-02-06T15:16:07.932Z,57.67
2023-02-06T15:18:35.874Z,58.06
2023-02-06T15:21:05.222Z,58.19
2023-02-06T15:23:50.178Z,58.77
2023-02-06T15:26:38.589Z,60.07
2023-02-06T15:29:17.859Z,60.25
2023-02-06T15:31:49.851Z,60.31
2023-02-06T15:34:19.403Z,60.91
2023-02-06T15:36:46.536Z,61.30
2023-02-06T15:39:14.556Z,61.69
2023-02-06T15:41:45.802Z,62.72
2023-02-06T15:44:18.804Z,63.62
2023-02-06T15:46:48.332Z,64.80
2023-02-06T15:49:19.293Z,64.92
2023-02-06T15:51:53.576Z,64.75
2023-02-06T15:54:23.894Z,65.68
2023-02-06T15:56:54.735Z,65.72
2023-02-06T15:59:25.330Z,65.87
2023-02-06T16:01:54.516Z,66.35
2023-02-06T16:04:30.527Z,66.63
2023-02-06T16:07:06.619Z,66.21
2023-02-06T16:09:44.038Z,66.25
2023-02-06T16:12:11.309Z,66.42
2023-02-06T16:14:40.745Z,66.31
2023-02-06T16:17:10.339Z,66.69
2023-02-06T16:19:56.028Z,67.19
2023-02-06T16:22:30.165Z,67.60
2023-02-06T16:25:29.573Z,67.69
2023-02-06T16:27:56.765Z,68.11
2023-02-06T16:30:28.487Z,68.49
2023-02-06T16:32:57.535Z,69.04
2023-02-06T16:35:24.798Z,68.78
2023-02-06T16:37:53.367Z,68.85
2023-02-06T16:40:20.362Z,68.85
2023-02-06T16:42:47.741Z,69.24
2023-02-06T16:45:22.721Z,69.33
2023-02-06T16:47:49.884Z,69.37
2023-02-06T16:50:17.214Z,69.81
2023-02-06T16:52:53.131Z,70.28
2023-02-06T16:55:25.898Z,70.45
2023-02-06T16:57:55.278Z,70.60
2023-02-06T17:00:24.467Z,71.23
2023-02-06T17:02:54.793Z,71.49
2023-02-06T17:05:24.180Z,71.71
2023-02-06T17:07:51.468Z,71.96
2023-02-06T17:10:22.669Z,72.13
2023-02-06T17:12:50.701Z,72.36
2023-02-06T17:15:18.592Z,72.98
2023-02-06T17:17:45.556Z,72.72
2023-02-06T17:20:28.446Z,72.79
2023-02-06T17:22:56.925Z,72.72
2023-02-06T17:25:24.274Z,72.85
2023-02-06T17:27:51.409Z,72.55
2023-02-06T17:30:20.739Z,72.44
2023-02-06T17:32:48.037Z,72.83
2023-02-06T17:35:15.350Z,73.02
2023-02-06T17:37:42.254Z,73.02
2023-02-06T17:40:12.385Z,73.45
2023-02-06T17:42:40.633Z,73.46
2023-02-06T17:45:08.274Z,73.42
2023-02-06T17:47:35.280Z,73.72
2023-02-06T17:50:04.652Z,73.99
2023-02-06T17:52:31.556Z,74.52
2023-02-06T17:54:58.731Z,75.04
2023-02-06T17:57:26.000Z,75.15
2023-02-06T17:59:53.682Z,75.89
2023-02-06T18:02:21.180Z,75.85
2023-02-06T18:04:54.071Z,75.87
2023-02-06T18:07:22.279Z,75.92
2023-02-06T18:09:49.897Z,75.94
2023-02-06T18:12:18.784Z,76.10
2023-02-06T18:14:48.010Z,76.01
2023-02-06T18:17:14.884Z,75.80
2023-02-06T18:19:42.675Z,76.11
2023-02-06T18:22:18.354Z,76.37
2023-02-06T18:24:45.662Z,76.23
2023-02-06T18:27:13.220Z,76.32
2023-02-06T18:29:50.580Z,76.38
2023-02-06T18:32:19.201Z,76.82
2023-02-06T18:34:47.035Z,77.08
2023-02-06T18:37:14.317Z,77.45
2023-02-06T18:39:43.142Z,77.86
2023-02-06T18:42:30.188Z,78.28
2023-02-06T18:44:57.285Z,78.20
2023-02-06T18:47:24.527Z,78.53
2023-02-06T18:49:51.493Z,79.07
2023-02-06T18:52:18.655Z,79.57
2023-02-06T18:54:45.929Z,79.58
2023-02-06T18:57:12.816Z,80.15
2023-02-06T18:59:44.127Z,80.34
2023-02-06T19:02:11.948Z,80.34
2023-02-06T19:04:40.628Z,80.61
2023-02-06T19:07:09.063Z,80.47
2023-02-06T19:09:36.328Z,80.66
2023-02-06T19:12:04.236Z,80.67
2023-02-06T19:14:31.566Z,81.17
2023-02-06T19:16:58.536Z,83.05
2023-02-06T19:19:25.921Z,83.65
2023-02-06T19:21:53.596Z,83.97
2023-02-06T19:24:20.583Z,84.93
2023-02-06T19:26:47.683Z,85.00
2023-02-06T19:29:19.311Z,85.82
2023-02-06T19:31:51.507Z,86.00
2023-02-06T19:34:18.699Z,85.78
2023-02-06T19:36:46.087Z,85.44
2023-02-06T19:39:14.277Z,85.60
2023-02-06T19:41:41.518Z,84.97
2023-02-06T19:44:10.649Z,84.85
2023-02-06T19:46:38.181Z,84.74
2023-02-06T19:49:08.525Z,84.36
2023-02-06T19:51:39.108Z,84.58
2023-02-06T19:54:07.371Z,84.79
2023-02-06T19:56:40.004Z,84.74
2023-02-06T19:59:21.956Z,84.80
2023-02-06T20:02:07.714Z,84.41
2023-02-06T20:04:36.368Z,84.85
2023-02-06T20:07:03.342Z,84.94
2023-02-06T20:09:32.104Z,85.01
2023-02-06T20:11:59.251Z,85.35
2023-02-06T20:14:26.869Z,84.80
2023-02-06T20:16:54.461Z,85.24
2023-02-06T20:19:24.739Z,85.17
2023-02-06T20:21:54.680Z,85.43
2023-02-06T20:24:25.874Z,85.32
2023-02-06T20:26:57.024Z,85.63
2023-02-06T20:29:24.137Z,85.81
2023-02-06T20:31:52.148Z,85.99
2023-02-06T20:34:19.795Z,86.08
2023-02-06T20:36:47.445Z,86.35
2023-02-06T20:39:15.295Z,86.19
2023-02-06T20:41:44.060Z,86.34
2023-02-06T20:44:12.493Z,86.43
2023-02-06T20:46:40.054Z,86.35
2023-02-06T20:49:12.595Z,86.28
2023-02-06T20:51:39.681Z,86.37
2023-02-06T20:54:06.843Z,86.61
2023-02-06T20:56:33.967Z,86.64
2023-02-06T20:59:01.529Z,86.85
2023-02-06T21:01:30.668Z,86.88
2023-02-06T21:04:00.726Z,86.82
2023-02-06T21:06:29.303Z,86.84
2023-02-06T21:09:03.129Z,86.89
2023-02-06T21:11:37.360Z,86.89
2023-02-06T21:14:05.604Z,86.83
2023-02-06T21:16:33.666Z,86.85
2023-02-06T21:19:02.979Z,87.02
2023-02-06T21:21:29.906Z,86.96
2023-02-06T21:23:56.819Z,87.06
2023-02-06T21:26:24.622Z,87.19
2023-02-06T21:28:52.203Z,87.29
2023-02-06T21:31:24.716Z,87.41
2023-02-06T21:33:52.473Z,87.68
2023-02-06T21:36:21.188Z,87.68
2023-02-06T21:38:48.229Z,87.81
2023-02-06T21:41:17.698Z,87.82
2023-02-06T21:43:45.117Z,87.92
2023-02-06T21:46:13.229Z,87.91
2023-02-06T21:48:40.766Z,87.72
2023-02-06T21:51:09.644Z,87.80
2023-02-06T21:53:36.776Z,87.97
2023-02-06T21:56:08.249Z,88.04
2023-02-06T21:58:36.299Z,88.21
2023-02-06T22:01:08.508Z,88.41
2023-02-06T22:03:36.382Z,88.50
2023-02-06T22:06:09.222Z,88.70
2023-02-06T22:08:37.207Z,88.71
2023-02-06T22:11:21.397Z,89.04
2023-02-06T22:13:48.539Z,88.96
2023-02-06T22:16:19.431Z,89.13
2023-02-06T22:18:46.618Z,89.27
2023-02-06T22:21:17.141Z,89.48
2023-02-06T22:23:45.032Z,89.59
2023-02-06T22:26:14.210Z,89.55
2023-02-06T22:28:42.074Z,89.54
2023-02-06T22:31:24.453Z,89.43
2023-02-06T22:33:51.762Z,89.41
2023-02-06T22:36:24.136Z,89.45
2023-02-06T22:38:57.419Z,89.42
2023-02-06T22:41:24.359Z,89.43
2023-02-06T22:43:51.706Z,89.52
2023-02-06T22:46:24.757Z,89.56
2023-02-06T22:48:52.001Z,90.04
2023-02-06T22:51:20.020Z,90.32
2023-02-06T22:53:47.207Z,90.38
2023-02-06T22:56:29.548Z,90.44
2023-02-06T22:59:00.243Z,90.66
2023-02-06T23:01:31.856Z,90.67
2023-02-06T23:03:59.842Z,90.73
2023-02-06T23:06:28.228Z,90.78
2023-02-06T23:08:56.450Z,91.01
2023-02-06T23:11:24.219Z,91.21
2023-02-06T23:13:53.258Z,91.33
2023-02-06T23:16:20.745Z,91.40
2023-02-06T23:18:47.948Z,91.30
2023-02-06T23:21:15.609Z,91.02
2023-02-06T23:23:42.774Z,91.02
2023-02-06T23:26:11.534Z,91.19
2023-02-06T23:28:39.117Z,91.10
2023-02-06T23:31:06.822Z,91.31
2023-02-06T23:33:34.453Z,91.43
2023-02-06T23:36:13.257Z,91.53
2023-02-06T23:38:40.424Z,91.76
2023-02-06T23:41:10.489Z,92.21
2023-02-06T23:43:38.196Z,92.27
2023-02-06T23:46:06.150Z,92.61
2023-02-06T23:48:33.668Z,93.19
2023-02-06T23:51:00.803Z,93.37
2023-02-06T23:53:28.488Z,93.98
2023-02-06T23:55:55.513Z,95.30
2023-02-06T23:58:22.510Z,95.55
